<?xml version="1.0" encoding="UTF-8"?>
<gpx version="1.1" creator="https://www.youtrack.es" xsi:schemaLocation="http://www.topografix.com/GPX/1/1 http://www.topografix.com/GPX/1/1/gpx.xsd http://www.garmin.com/xmlschemas/GpxExtensions/v3 http://www.garmin.com/xmlschemas/GpxExtensionsv3.xsd http://www.garmin.com/xmlschemas/TrackPointExtension/v1 http://www.garmin.com/xmlschemas/TrackPointExtensionv1.xsd" xmlns:gpxtpx="http://www.garmin.com/xmlschemas/TrackPointExtension/v1" xmlns:gpxx="http://www.garmin.com/xmlschemas/GpxExtensions/v3" xmlns:xsi="http://www.w3.org/2001/XMLSchema-instance">
  <metadata>
    <link href="https://www.youtrack.es">
      <text>YouTrack.es</text>
    </link>
    <time>2026-05-09T02:07:33Z</time>
  </metadata>
  <trk>
    <src>https://www.youtrack.es</src>
    <link href="https://www.youtrack.es/ruta/6247-1y2mirador">
      <text>YouTrack.es</text>
    </link>
    <trkseg>
      <trkpt lat="42.696783" lon="0.707442">
        <ele>1272.4</ele>
        <time>2009-07-21T12:26:17Z</time>
      </trkpt>
      <trkpt lat="42.696580" lon="0.707043">
        <ele>1273.9</ele>
        <time>2009-07-21T12:26:43Z</time>
      </trkpt>
      <trkpt lat="42.696407" lon="0.707013">
        <ele>1275.8</ele>
        <time>2009-07-21T12:26:59Z</time>
      </trkpt>
      <trkpt lat="42.696308" lon="0.707457">
        <ele>1274.8</ele>
        <time>2009-07-21T12:27:27Z</time>
      </trkpt>
      <trkpt lat="42.696139" lon="0.707418">
        <ele>1274.8</ele>
        <time>2009-07-21T12:28:10Z</time>
      </trkpt>
      <trkpt lat="42.696188" lon="0.707179">
        <ele>1281.6</ele>
        <time>2009-07-21T12:29:12Z</time>
      </trkpt>
      <trkpt lat="42.696420" lon="0.707061">
        <ele>1285.9</ele>
        <time>2009-07-21T12:29:38Z</time>
      </trkpt>
      <trkpt lat="42.695873" lon="0.706321">
        <ele>1316.2</ele>
        <time>2009-07-21T12:33:16Z</time>
      </trkpt>
      <trkpt lat="42.695855" lon="0.706135">
        <ele>1323.9</ele>
        <time>2009-07-21T12:34:07Z</time>
      </trkpt>
      <trkpt lat="42.695961" lon="0.706116">
        <ele>1329.2</ele>
        <time>2009-07-21T12:35:23Z</time>
      </trkpt>
      <trkpt lat="42.695786" lon="0.705655">
        <ele>1341.7</ele>
        <time>2009-07-21T12:36:42Z</time>
      </trkpt>
      <trkpt lat="42.695775" lon="0.704324">
        <ele>1385.9</ele>
        <time>2009-07-21T12:41:20Z</time>
      </trkpt>
      <trkpt lat="42.695911" lon="0.703942">
        <ele>1404.1</ele>
        <time>2009-07-21T12:43:10Z</time>
      </trkpt>
      <trkpt lat="42.695708" lon="0.703522">
        <ele>1426.3</ele>
        <time>2009-07-21T12:45:01Z</time>
      </trkpt>
      <trkpt lat="42.695578" lon="0.702395">
        <ele>1459.4</ele>
        <time>2009-07-21T12:49:53Z</time>
      </trkpt>
      <trkpt lat="42.695386" lon="0.702275">
        <ele>1467.6</ele>
        <time>2009-07-21T12:50:44Z</time>
      </trkpt>
      <trkpt lat="42.695822" lon="0.701748">
        <ele>1479.6</ele>
        <time>2009-07-21T12:52:08Z</time>
      </trkpt>
      <trkpt lat="42.695008" lon="0.701096">
        <ele>1520.0</ele>
        <time>2009-07-21T12:54:57Z</time>
      </trkpt>
      <trkpt lat="42.694724" lon="0.700330">
        <ele>1546.9</ele>
        <time>2009-07-21T12:56:45Z</time>
      </trkpt>
      <trkpt lat="42.694558" lon="0.700206">
        <ele>1552.7</ele>
        <time>2009-07-21T12:57:07Z</time>
      </trkpt>
      <trkpt lat="42.694604" lon="0.699714">
        <ele>1566.1</ele>
        <time>2009-07-21T13:02:23Z</time>
      </trkpt>
      <trkpt lat="42.694622" lon="0.699840">
        <ele>1572.9</ele>
        <time>2009-07-21T13:02:48Z</time>
      </trkpt>
      <trkpt lat="42.695483" lon="0.699564">
        <ele>1575.7</ele>
        <time>2009-07-21T13:03:04Z</time>
      </trkpt>
      <trkpt lat="42.695552" lon="0.699040">
        <ele>1592.6</ele>
        <time>2009-07-21T13:04:35Z</time>
      </trkpt>
      <trkpt lat="42.695356" lon="0.698836">
        <ele>1596.4</ele>
        <time>2009-07-21T13:04:50Z</time>
      </trkpt>
      <trkpt lat="42.695397" lon="0.698708">
        <ele>1599.3</ele>
        <time>2009-07-21T13:05:05Z</time>
      </trkpt>
      <trkpt lat="42.696634" lon="0.697436">
        <ele>1638.7</ele>
        <time>2009-07-21T13:07:47Z</time>
      </trkpt>
      <trkpt lat="42.696853" lon="0.692887">
        <ele>1735.3</ele>
        <time>2009-07-21T13:16:38Z</time>
      </trkpt>
      <trkpt lat="42.697024" lon="0.692625">
        <ele>1737.7</ele>
        <time>2009-07-21T13:17:08Z</time>
      </trkpt>
      <trkpt lat="42.697291" lon="0.692711">
        <ele>1735.8</ele>
        <time>2009-07-21T13:17:40Z</time>
      </trkpt>
      <trkpt lat="42.697485" lon="0.692546">
        <ele>1740.1</ele>
        <time>2009-07-21T13:18:12Z</time>
      </trkpt>
      <trkpt lat="42.698430" lon="0.690291">
        <ele>1775.2</ele>
        <time>2009-07-21T13:21:36Z</time>
      </trkpt>
      <trkpt lat="42.698590" lon="0.689234">
        <ele>1789.6</ele>
        <time>2009-07-21T13:23:06Z</time>
      </trkpt>
      <trkpt lat="42.698518" lon="0.688551">
        <ele>1801.6</ele>
        <time>2009-07-21T13:25:35Z</time>
      </trkpt>
      <trkpt lat="42.698783" lon="0.687501">
        <ele>1817.0</ele>
        <time>2009-07-21T13:32:11Z</time>
      </trkpt>
      <trkpt lat="42.699360" lon="0.686406">
        <ele>1837.2</ele>
        <time>2009-07-21T13:33:30Z</time>
      </trkpt>
      <trkpt lat="42.699691" lon="0.686007">
        <ele>1847.8</ele>
        <time>2009-07-21T13:34:10Z</time>
      </trkpt>
      <trkpt lat="42.700008" lon="0.685902">
        <ele>1855.5</ele>
        <time>2009-07-21T13:34:40Z</time>
      </trkpt>
      <trkpt lat="42.700274" lon="0.685461">
        <ele>1871.3</ele>
        <time>2009-07-21T13:36:02Z</time>
      </trkpt>
      <trkpt lat="42.700364" lon="0.684799">
        <ele>1896.8</ele>
        <time>2009-07-21T13:37:57Z</time>
      </trkpt>
      <trkpt lat="42.700101" lon="0.684184">
        <ele>1927.6</ele>
        <time>2009-07-21T13:39:55Z</time>
      </trkpt>
      <trkpt lat="42.699377" lon="0.683873">
        <ele>1957.4</ele>
        <time>2009-07-21T13:41:43Z</time>
      </trkpt>
      <trkpt lat="42.699568" lon="0.682926">
        <ele>1970.8</ele>
        <time>2009-07-21T13:42:43Z</time>
      </trkpt>
      <trkpt lat="42.700535" lon="0.681260">
        <ele>1979.0</ele>
        <time>2009-07-21T13:44:44Z</time>
      </trkpt>
      <trkpt lat="42.701275" lon="0.680377">
        <ele>1988.1</ele>
        <time>2009-07-21T13:45:52Z</time>
      </trkpt>
      <trkpt lat="42.701537" lon="0.679592">
        <ele>2004.0</ele>
        <time>2009-07-21T13:46:41Z</time>
      </trkpt>
      <trkpt lat="42.702182" lon="0.679278">
        <ele>2028.0</ele>
        <time>2009-07-21T13:47:51Z</time>
      </trkpt>
      <trkpt lat="42.702593" lon="0.678673">
        <ele>2047.3</ele>
        <time>2009-07-21T13:48:35Z</time>
      </trkpt>
      <trkpt lat="42.702944" lon="0.678427">
        <ele>2062.6</ele>
        <time>2009-07-21T13:49:11Z</time>
      </trkpt>
      <trkpt lat="42.702855" lon="0.678131">
        <ele>2069.4</ele>
        <time>2009-07-21T13:49:36Z</time>
      </trkpt>
      <trkpt lat="42.703178" lon="0.678021">
        <ele>2074.7</ele>
        <time>2009-07-21T13:50:04Z</time>
      </trkpt>
      <trkpt lat="42.703420" lon="0.677585">
        <ele>2064.4</ele>
        <time>2009-07-21T13:51:19Z</time>
      </trkpt>
      <trkpt lat="42.703418" lon="0.677590">
        <ele>2070.7</ele>
        <time>2016-09-04T10:34:29Z</time>
      </trkpt>
      <trkpt lat="42.703628" lon="0.677265">
        <ele>2065.0</ele>
        <time>2016-09-04T10:35:02Z</time>
      </trkpt>
      <trkpt lat="42.703935" lon="0.677489">
        <ele>2062.6</ele>
        <time>2016-09-04T10:35:33Z</time>
      </trkpt>
      <trkpt lat="42.704538" lon="0.677371">
        <ele>2056.3</ele>
        <time>2016-09-04T10:36:44Z</time>
      </trkpt>
      <trkpt lat="42.706272" lon="0.677936">
        <ele>2029.7</ele>
        <time>2016-09-04T10:39:37Z</time>
      </trkpt>
      <trkpt lat="42.706751" lon="0.678398">
        <ele>2018.3</ele>
        <time>2016-09-04T10:40:49Z</time>
      </trkpt>
      <trkpt lat="42.707243" lon="0.678450">
        <ele>2003.0</ele>
        <time>2016-09-04T10:41:54Z</time>
      </trkpt>
      <trkpt lat="42.707675" lon="0.678143">
        <ele>1993.2</ele>
        <time>2016-09-04T10:42:49Z</time>
      </trkpt>
      <trkpt lat="42.708067" lon="0.678342">
        <ele>1983.2</ele>
        <time>2016-09-04T10:43:36Z</time>
      </trkpt>
      <trkpt lat="42.708346" lon="0.678252">
        <ele>1976.2</ele>
        <time>2016-09-04T10:44:09Z</time>
      </trkpt>
      <trkpt lat="42.709560" lon="0.675596">
        <ele>1917.0</ele>
        <time>2016-09-04T10:49:48Z</time>
      </trkpt>
      <trkpt lat="42.710305" lon="0.675043">
        <ele>1903.9</ele>
        <time>2016-09-04T10:51:12Z</time>
      </trkpt>
      <trkpt lat="42.711709" lon="0.674557">
        <ele>1872.9</ele>
        <time>2016-09-04T10:54:06Z</time>
      </trkpt>
      <trkpt lat="42.712053" lon="0.674131">
        <ele>1863.0</ele>
        <time>2016-09-04T10:55:01Z</time>
      </trkpt>
      <trkpt lat="42.713291" lon="0.673210">
        <ele>1834.7</ele>
        <time>2016-09-04T10:57:26Z</time>
      </trkpt>
      <trkpt lat="42.713649" lon="0.672824">
        <ele>1825.4</ele>
        <time>2016-09-04T10:58:15Z</time>
      </trkpt>
      <trkpt lat="42.713685" lon="0.672597">
        <ele>1818.4</ele>
        <time>2016-09-04T10:58:47Z</time>
      </trkpt>
      <trkpt lat="42.714399" lon="0.672034">
        <ele>1802.2</ele>
        <time>2016-09-04T11:00:14Z</time>
      </trkpt>
      <trkpt lat="42.714595" lon="0.671028">
        <ele>1788.0</ele>
        <time>2016-09-04T11:01:37Z</time>
      </trkpt>
      <trkpt lat="42.715076" lon="0.669979">
        <ele>1772.0</ele>
        <time>2016-09-04T11:03:18Z</time>
      </trkpt>
      <trkpt lat="42.715720" lon="0.669398">
        <ele>1761.6</ele>
        <time>2016-09-04T11:04:29Z</time>
      </trkpt>
      <trkpt lat="42.717526" lon="0.668202">
        <ele>1740.7</ele>
        <time>2016-09-04T11:07:49Z</time>
      </trkpt>
      <trkpt lat="42.717970" lon="0.666482">
        <ele>1739.0</ele>
        <time>2016-09-04T11:09:54Z</time>
      </trkpt>
      <trkpt lat="42.718611" lon="0.665206">
        <ele>1728.3</ele>
        <time>2016-09-04T11:12:17Z</time>
      </trkpt>
      <trkpt lat="42.718666" lon="0.664429">
        <ele>1711.2</ele>
        <time>2016-09-04T11:14:05Z</time>
      </trkpt>
      <trkpt lat="42.719216" lon="0.664150">
        <ele>1693.9</ele>
        <time>2016-09-04T11:15:50Z</time>
      </trkpt>
      <trkpt lat="42.719847" lon="0.662959">
        <ele>1668.6</ele>
        <time>2016-09-04T11:18:41Z</time>
      </trkpt>
      <trkpt lat="42.720174" lon="0.661919">
        <ele>1647.9</ele>
        <time>2016-09-04T11:20:22Z</time>
      </trkpt>
      <trkpt lat="42.719516" lon="0.661963">
        <ele>1626.5</ele>
        <time>2016-09-04T11:22:09Z</time>
      </trkpt>
      <trkpt lat="42.719093" lon="0.662205">
        <ele>1615.9</ele>
        <time>2016-09-04T11:23:17Z</time>
      </trkpt>
      <trkpt lat="42.719498" lon="0.661494">
        <ele>1599.5</ele>
        <time>2016-09-04T11:24:49Z</time>
      </trkpt>
      <trkpt lat="42.719232" lon="0.661517">
        <ele>1590.6</ele>
        <time>2016-09-04T11:25:35Z</time>
      </trkpt>
      <trkpt lat="42.718700" lon="0.661803">
        <ele>1575.4</ele>
        <time>2016-09-04T11:26:52Z</time>
      </trkpt>
      <trkpt lat="42.717571" lon="0.662929">
        <ele>1555.5</ele>
        <time>2016-09-04T11:29:29Z</time>
      </trkpt>
      <trkpt lat="42.717646" lon="0.662187">
        <ele>1539.9</ele>
        <time>2016-09-04T11:30:46Z</time>
      </trkpt>
      <trkpt lat="42.718591" lon="0.660220">
        <ele>1503.7</ele>
        <time>2016-09-04T11:34:23Z</time>
      </trkpt>
      <trkpt lat="42.718655" lon="0.659848">
        <ele>1497.4</ele>
        <time>2016-09-04T11:34:53Z</time>
      </trkpt>
      <trkpt lat="42.718535" lon="0.659848">
        <ele>1491.4</ele>
        <time>2016-09-04T11:35:23Z</time>
      </trkpt>
      <trkpt lat="42.718747" lon="0.659379">
        <ele>1482.1</ele>
        <time>2016-09-04T11:36:11Z</time>
      </trkpt>
      <trkpt lat="42.718100" lon="0.659583">
        <ele>1467.0</ele>
        <time>2016-09-04T11:37:38Z</time>
      </trkpt>
      <trkpt lat="42.718588" lon="0.658858">
        <ele>1453.0</ele>
        <time>2016-09-04T11:38:59Z</time>
      </trkpt>
      <trkpt lat="42.718214" lon="0.658638">
        <ele>1446.9</ele>
        <time>2016-09-04T11:39:49Z</time>
      </trkpt>
      <trkpt lat="42.718833" lon="0.658357">
        <ele>1434.3</ele>
        <time>2016-09-04T11:41:13Z</time>
      </trkpt>
      <trkpt lat="42.719612" lon="0.657435">
        <ele>1419.8</ele>
        <time>2016-09-04T11:43:07Z</time>
      </trkpt>
      <trkpt lat="42.721114" lon="0.654833">
        <ele>1480.8</ele>
        <time>2016-09-04T11:47:11Z</time>
      </trkpt>
      <trkpt lat="42.721024" lon="0.654840">
        <ele>1383.0</ele>
        <time>1989-12-30T23:59:59Z</time>
      </trkpt>
      <trkpt lat="42.721036" lon="0.654875">
        <ele>1386.8</ele>
        <time>1989-12-30T23:59:59Z</time>
      </trkpt>
      <trkpt lat="42.721049" lon="0.654893">
        <ele>1378.2</ele>
        <time>1989-12-30T23:59:59Z</time>
      </trkpt>
      <trkpt lat="42.721049" lon="0.654894">
        <ele>1387.3</ele>
        <time>1989-12-30T23:59:59Z</time>
      </trkpt>
      <trkpt lat="42.721049" lon="0.654894">
        <ele>1381.1</ele>
        <time>1989-12-30T23:59:59Z</time>
      </trkpt>
      <trkpt lat="42.721057" lon="0.654897">
        <ele>1385.9</ele>
        <time>1989-12-30T23:59:59Z</time>
      </trkpt>
      <trkpt lat="42.721058" lon="0.654896">
        <ele>1381.6</ele>
        <time>1989-12-30T23:59:59Z</time>
      </trkpt>
      <trkpt lat="42.720993" lon="0.654813">
        <ele>1383.5</ele>
        <time>1989-12-30T23:59:59Z</time>
      </trkpt>
      <trkpt lat="42.720952" lon="0.654849">
        <ele>1383.0</ele>
        <time>1989-12-30T23:59:59Z</time>
      </trkpt>
      <trkpt lat="42.721014" lon="0.654861">
        <ele>1383.5</ele>
        <time>1989-12-30T23:59:59Z</time>
      </trkpt>
      <trkpt lat="42.721167" lon="0.654529">
        <ele>1384.0</ele>
        <time>1989-12-30T23:59:59Z</time>
      </trkpt>
      <trkpt lat="42.721279" lon="0.654505">
        <ele>1384.0</ele>
        <time>1989-12-30T23:59:59Z</time>
      </trkpt>
      <trkpt lat="42.721629" lon="0.654773">
        <ele>1391.2</ele>
        <time>1989-12-30T23:59:59Z</time>
      </trkpt>
      <trkpt lat="42.721791" lon="0.654993">
        <ele>1394.5</ele>
        <time>1989-12-30T23:59:59Z</time>
      </trkpt>
      <trkpt lat="42.722061" lon="0.655031">
        <ele>1401.3</ele>
        <time>1989-12-30T23:59:59Z</time>
      </trkpt>
      <trkpt lat="42.722126" lon="0.655093">
        <ele>1403.2</ele>
        <time>1989-12-30T23:59:59Z</time>
      </trkpt>
      <trkpt lat="42.722032" lon="0.655593">
        <ele>1412.8</ele>
        <time>1989-12-30T23:59:59Z</time>
      </trkpt>
      <trkpt lat="42.722262" lon="0.655601">
        <ele>1420.0</ele>
        <time>1989-12-30T23:59:59Z</time>
      </trkpt>
      <trkpt lat="42.722763" lon="0.655156">
        <ele>1430.6</ele>
        <time>1989-12-30T23:59:59Z</time>
      </trkpt>
      <trkpt lat="42.722939" lon="0.655139">
        <ele>1437.3</ele>
        <time>1989-12-30T23:59:59Z</time>
      </trkpt>
      <trkpt lat="42.723025" lon="0.655001">
        <ele>1440.2</ele>
        <time>1989-12-30T23:59:59Z</time>
      </trkpt>
      <trkpt lat="42.723230" lon="0.654929">
        <ele>1442.1</ele>
        <time>1989-12-30T23:59:59Z</time>
      </trkpt>
      <trkpt lat="42.723450" lon="0.654978">
        <ele>1445.0</ele>
        <time>1989-12-30T23:59:59Z</time>
      </trkpt>
      <trkpt lat="42.723656" lon="0.655265">
        <ele>1442.6</ele>
        <time>1989-12-30T23:59:59Z</time>
      </trkpt>
      <trkpt lat="42.723717" lon="0.655269">
        <ele>1443.6</ele>
        <time>1989-12-30T23:59:59Z</time>
      </trkpt>
      <trkpt lat="42.723660" lon="0.655232">
        <ele>1446.9</ele>
        <time>1989-12-30T23:59:59Z</time>
      </trkpt>
      <trkpt lat="42.723746" lon="0.654920">
        <ele>1450.3</ele>
        <time>1989-12-30T23:59:59Z</time>
      </trkpt>
      <trkpt lat="42.723888" lon="0.654676">
        <ele>1453.2</ele>
        <time>1989-12-30T23:59:59Z</time>
      </trkpt>
      <trkpt lat="42.723924" lon="0.654721">
        <ele>1456.5</ele>
        <time>1989-12-30T23:59:59Z</time>
      </trkpt>
      <trkpt lat="42.724035" lon="0.654491">
        <ele>1466.1</ele>
        <time>1989-12-30T23:59:59Z</time>
      </trkpt>
      <trkpt lat="42.724245" lon="0.654283">
        <ele>1471.4</ele>
        <time>1989-12-30T23:59:59Z</time>
      </trkpt>
      <trkpt lat="42.724468" lon="0.654304">
        <ele>1477.2</ele>
        <time>1989-12-30T23:59:59Z</time>
      </trkpt>
      <trkpt lat="42.724627" lon="0.654070">
        <ele>1481.5</ele>
        <time>1989-12-30T23:59:59Z</time>
      </trkpt>
      <trkpt lat="42.724951" lon="0.653773">
        <ele>1491.1</ele>
        <time>1989-12-30T23:59:59Z</time>
      </trkpt>
      <trkpt lat="42.725004" lon="0.653661">
        <ele>1494.0</ele>
        <time>1989-12-30T23:59:59Z</time>
      </trkpt>
      <trkpt lat="42.725201" lon="0.653609">
        <ele>1499.8</ele>
        <time>1989-12-30T23:59:59Z</time>
      </trkpt>
      <trkpt lat="42.725363" lon="0.653423">
        <ele>1500.3</ele>
        <time>1989-12-30T23:59:59Z</time>
      </trkpt>
      <trkpt lat="42.725631" lon="0.653412">
        <ele>1509.4</ele>
        <time>1989-12-30T23:59:59Z</time>
      </trkpt>
      <trkpt lat="42.726001" lon="0.653229">
        <ele>1523.3</ele>
        <time>1989-12-30T23:59:59Z</time>
      </trkpt>
      <trkpt lat="42.726119" lon="0.653254">
        <ele>1526.7</ele>
        <time>1989-12-30T23:59:59Z</time>
      </trkpt>
      <trkpt lat="42.726435" lon="0.653156">
        <ele>1531.0</ele>
        <time>1989-12-30T23:59:59Z</time>
      </trkpt>
      <trkpt lat="42.726678" lon="0.653185">
        <ele>1540.2</ele>
        <time>1989-12-30T23:59:59Z</time>
      </trkpt>
      <trkpt lat="42.726657" lon="0.653263">
        <ele>1542.1</ele>
        <time>1989-12-30T23:59:59Z</time>
      </trkpt>
      <trkpt lat="42.727188" lon="0.653225">
        <ele>1560.4</ele>
        <time>1989-12-30T23:59:59Z</time>
      </trkpt>
      <trkpt lat="42.727479" lon="0.653313">
        <ele>1575.7</ele>
        <time>1989-12-30T23:59:59Z</time>
      </trkpt>
      <trkpt lat="42.727485" lon="0.653395">
        <ele>1578.6</ele>
        <time>1989-12-30T23:59:59Z</time>
      </trkpt>
      <trkpt lat="42.727683" lon="0.653477">
        <ele>1588.2</ele>
        <time>1989-12-30T23:59:59Z</time>
      </trkpt>
      <trkpt lat="42.727709" lon="0.653525">
        <ele>1591.1</ele>
        <time>1989-12-30T23:59:59Z</time>
      </trkpt>
      <trkpt lat="42.727649" lon="0.653584">
        <ele>1594.0</ele>
        <time>1989-12-30T23:59:59Z</time>
      </trkpt>
      <trkpt lat="42.727727" lon="0.653672">
        <ele>1600.3</ele>
        <time>1989-12-30T23:59:59Z</time>
      </trkpt>
      <trkpt lat="42.727660" lon="0.653783">
        <ele>1605.1</ele>
        <time>1989-12-30T23:59:59Z</time>
      </trkpt>
      <trkpt lat="42.727777" lon="0.653865">
        <ele>1609.4</ele>
        <time>1989-12-30T23:59:59Z</time>
      </trkpt>
      <trkpt lat="42.727756" lon="0.654011">
        <ele>1614.2</ele>
        <time>1989-12-30T23:59:59Z</time>
      </trkpt>
      <trkpt lat="42.727780" lon="0.654018">
        <ele>1617.6</ele>
        <time>1989-12-30T23:59:59Z</time>
      </trkpt>
      <trkpt lat="42.728069" lon="0.654424">
        <ele>1623.3</ele>
        <time>1989-12-30T23:59:59Z</time>
      </trkpt>
      <trkpt lat="42.728344" lon="0.654695">
        <ele>1634.4</ele>
        <time>1989-12-30T23:59:59Z</time>
      </trkpt>
      <trkpt lat="42.728676" lon="0.654611">
        <ele>1638.2</ele>
        <time>1989-12-30T23:59:59Z</time>
      </trkpt>
      <trkpt lat="42.728878" lon="0.654623">
        <ele>1638.2</ele>
        <time>1989-12-30T23:59:59Z</time>
      </trkpt>
      <trkpt lat="42.729382" lon="0.654852">
        <ele>1637.3</ele>
        <time>1989-12-30T23:59:59Z</time>
      </trkpt>
      <trkpt lat="42.729469" lon="0.654822">
        <ele>1637.3</ele>
        <time>1989-12-30T23:59:59Z</time>
      </trkpt>
      <trkpt lat="42.729594" lon="0.654648">
        <ele>1639.7</ele>
        <time>1989-12-30T23:59:59Z</time>
      </trkpt>
      <trkpt lat="42.729863" lon="0.654007">
        <ele>1644.0</ele>
        <time>1989-12-30T23:59:59Z</time>
      </trkpt>
      <trkpt lat="42.730009" lon="0.653870">
        <ele>1644.5</ele>
        <time>1989-12-30T23:59:59Z</time>
      </trkpt>
      <trkpt lat="42.730243" lon="0.653853">
        <ele>1644.0</ele>
        <time>1989-12-30T23:59:59Z</time>
      </trkpt>
      <trkpt lat="42.730460" lon="0.653493">
        <ele>1645.9</ele>
        <time>1989-12-30T23:59:59Z</time>
      </trkpt>
      <trkpt lat="42.730554" lon="0.653439">
        <ele>1647.4</ele>
        <time>1989-12-30T23:59:59Z</time>
      </trkpt>
      <trkpt lat="42.731207" lon="0.653422">
        <ele>1652.6</ele>
        <time>1989-12-30T23:59:59Z</time>
      </trkpt>
      <trkpt lat="42.733497" lon="0.653040">
        <ele>1653.6</ele>
        <time>1989-12-30T23:59:59Z</time>
      </trkpt>
      <trkpt lat="42.734041" lon="0.652552">
        <ele>1646.4</ele>
        <time>1989-12-30T23:59:59Z</time>
      </trkpt>
      <trkpt lat="42.734233" lon="0.652295">
        <ele>1643.0</ele>
        <time>1989-12-30T23:59:59Z</time>
      </trkpt>
      <trkpt lat="42.734690" lon="0.652196">
        <ele>1639.7</ele>
        <time>1989-12-30T23:59:59Z</time>
      </trkpt>
      <trkpt lat="42.735218" lon="0.651795">
        <ele>1633.4</ele>
        <time>1989-12-30T23:59:59Z</time>
      </trkpt>
      <trkpt lat="42.735333" lon="0.651866">
        <ele>1628.6</ele>
        <time>1989-12-30T23:59:59Z</time>
      </trkpt>
      <trkpt lat="42.735602" lon="0.651777">
        <ele>1624.8</ele>
        <time>1989-12-30T23:59:59Z</time>
      </trkpt>
      <trkpt lat="42.735911" lon="0.651773">
        <ele>1618.5</ele>
        <time>1989-12-30T23:59:59Z</time>
      </trkpt>
      <trkpt lat="42.736597" lon="0.651249">
        <ele>1611.3</ele>
        <time>1989-12-30T23:59:59Z</time>
      </trkpt>
      <trkpt lat="42.737238" lon="0.650835">
        <ele>1598.3</ele>
        <time>1989-12-30T23:59:59Z</time>
      </trkpt>
      <trkpt lat="42.737681" lon="0.650810">
        <ele>1592.1</ele>
        <time>1989-12-30T23:59:59Z</time>
      </trkpt>
      <trkpt lat="42.738033" lon="0.650865">
        <ele>1589.7</ele>
        <time>1989-12-30T23:59:59Z</time>
      </trkpt>
      <trkpt lat="42.738440" lon="0.651015">
        <ele>1592.1</ele>
        <time>1989-12-30T23:59:59Z</time>
      </trkpt>
      <trkpt lat="42.738709" lon="0.651172">
        <ele>1592.6</ele>
        <time>1989-12-30T23:59:59Z</time>
      </trkpt>
      <trkpt lat="42.739098" lon="0.651013">
        <ele>1595.0</ele>
        <time>1989-12-30T23:59:59Z</time>
      </trkpt>
      <trkpt lat="42.740120" lon="0.651070">
        <ele>1597.8</ele>
        <time>1989-12-30T23:59:59Z</time>
      </trkpt>
      <trkpt lat="42.741096" lon="0.650946">
        <ele>1604.6</ele>
        <time>1989-12-30T23:59:59Z</time>
      </trkpt>
      <trkpt lat="42.741309" lon="0.650836">
        <ele>1606.0</ele>
        <time>1989-12-30T23:59:59Z</time>
      </trkpt>
      <trkpt lat="42.741597" lon="0.650812">
        <ele>1607.9</ele>
        <time>1989-12-30T23:59:59Z</time>
      </trkpt>
      <trkpt lat="42.742038" lon="0.650606">
        <ele>1612.3</ele>
        <time>1989-12-30T23:59:59Z</time>
      </trkpt>
      <trkpt lat="42.742548" lon="0.649979">
        <ele>1620.4</ele>
        <time>1989-12-30T23:59:59Z</time>
      </trkpt>
      <trkpt lat="42.742924" lon="0.649996">
        <ele>1625.2</ele>
        <time>1989-12-30T23:59:59Z</time>
      </trkpt>
      <trkpt lat="42.743052" lon="0.650090">
        <ele>1628.6</ele>
        <time>1989-12-30T23:59:59Z</time>
      </trkpt>
      <trkpt lat="42.743298" lon="0.650077">
        <ele>1634.4</ele>
        <time>1989-12-30T23:59:59Z</time>
      </trkpt>
      <trkpt lat="42.743506" lon="0.649989">
        <ele>1639.7</ele>
        <time>1989-12-30T23:59:59Z</time>
      </trkpt>
      <trkpt lat="42.743993" lon="0.649465">
        <ele>1652.6</ele>
        <time>1989-12-30T23:59:59Z</time>
      </trkpt>
      <trkpt lat="42.744603" lon="0.649234">
        <ele>1658.9</ele>
        <time>1989-12-30T23:59:59Z</time>
      </trkpt>
      <trkpt lat="42.745233" lon="0.648784">
        <ele>1665.6</ele>
        <time>1989-12-30T23:59:59Z</time>
      </trkpt>
      <trkpt lat="42.745771" lon="0.648640">
        <ele>1669.5</ele>
        <time>1989-12-30T23:59:59Z</time>
      </trkpt>
      <trkpt lat="42.746175" lon="0.648619">
        <ele>1672.4</ele>
        <time>1989-12-30T23:59:59Z</time>
      </trkpt>
      <trkpt lat="42.746532" lon="0.648200">
        <ele>1677.2</ele>
        <time>1989-12-30T23:59:59Z</time>
      </trkpt>
      <trkpt lat="42.746704" lon="0.648113">
        <ele>1678.1</ele>
        <time>1989-12-30T23:59:59Z</time>
      </trkpt>
      <trkpt lat="42.746901" lon="0.648145">
        <ele>1679.6</ele>
        <time>1989-12-30T23:59:59Z</time>
      </trkpt>
      <trkpt lat="42.747508" lon="0.647810">
        <ele>1685.8</ele>
        <time>1989-12-30T23:59:59Z</time>
      </trkpt>
      <trkpt lat="42.747721" lon="0.647845">
        <ele>1687.7</ele>
        <time>1989-12-30T23:59:59Z</time>
      </trkpt>
      <trkpt lat="42.747904" lon="0.647902">
        <ele>1689.7</ele>
        <time>1989-12-30T23:59:59Z</time>
      </trkpt>
      <trkpt lat="42.748233" lon="0.648216">
        <ele>1693.5</ele>
        <time>1989-12-30T23:59:59Z</time>
      </trkpt>
      <trkpt lat="42.748356" lon="0.648254">
        <ele>1694.0</ele>
        <time>1989-12-30T23:59:59Z</time>
      </trkpt>
      <trkpt lat="42.748514" lon="0.648460">
        <ele>1695.4</ele>
        <time>1989-12-30T23:59:59Z</time>
      </trkpt>
      <trkpt lat="42.748587" lon="0.648464">
        <ele>1696.9</ele>
        <time>1989-12-30T23:59:59Z</time>
      </trkpt>
      <trkpt lat="42.748808" lon="0.648302">
        <ele>1700.2</ele>
        <time>1989-12-30T23:59:59Z</time>
      </trkpt>
      <trkpt lat="42.749100" lon="0.647941">
        <ele>1704.1</ele>
        <time>1989-12-30T23:59:59Z</time>
      </trkpt>
      <trkpt lat="42.749315" lon="0.647852">
        <ele>1706.0</ele>
        <time>1989-12-30T23:59:59Z</time>
      </trkpt>
      <trkpt lat="42.749728" lon="0.647513">
        <ele>1711.8</ele>
        <time>1989-12-30T23:59:59Z</time>
      </trkpt>
      <trkpt lat="42.750836" lon="0.646986">
        <ele>1724.3</ele>
        <time>1989-12-30T23:59:59Z</time>
      </trkpt>
      <trkpt lat="42.750969" lon="0.647045">
        <ele>1728.6</ele>
        <time>1989-12-30T23:59:59Z</time>
      </trkpt>
      <trkpt lat="42.751430" lon="0.647698">
        <ele>1741.6</ele>
        <time>1989-12-30T23:59:59Z</time>
      </trkpt>
      <trkpt lat="42.751862" lon="0.648018">
        <ele>1748.8</ele>
        <time>1989-12-30T23:59:59Z</time>
      </trkpt>
      <trkpt lat="42.751983" lon="0.648187">
        <ele>1749.3</ele>
        <time>1989-12-30T23:59:59Z</time>
      </trkpt>
      <trkpt lat="42.752075" lon="0.648893">
        <ele>1756.0</ele>
        <time>1989-12-30T23:59:59Z</time>
      </trkpt>
      <trkpt lat="42.752218" lon="0.649148">
        <ele>1756.9</ele>
        <time>1989-12-30T23:59:59Z</time>
      </trkpt>
      <trkpt lat="42.752203" lon="0.649142">
        <ele>1760.8</ele>
        <time>1989-12-30T23:59:59Z</time>
      </trkpt>
      <trkpt lat="42.752439" lon="0.649034">
        <ele>1758.4</ele>
        <time>1989-12-30T23:59:59Z</time>
      </trkpt>
      <trkpt lat="42.752688" lon="0.649073">
        <ele>1757.9</ele>
        <time>1989-12-30T23:59:59Z</time>
      </trkpt>
      <trkpt lat="42.753053" lon="0.648966">
        <ele>1755.0</ele>
        <time>1989-12-30T23:59:59Z</time>
      </trkpt>
      <trkpt lat="42.753306" lon="0.648983">
        <ele>1754.1</ele>
        <time>1989-12-30T23:59:59Z</time>
      </trkpt>
      <trkpt lat="42.753458" lon="0.649027">
        <ele>1753.6</ele>
        <time>1989-12-30T23:59:59Z</time>
      </trkpt>
      <trkpt lat="42.753767" lon="0.649291">
        <ele>1747.3</ele>
        <time>1989-12-30T23:59:59Z</time>
      </trkpt>
      <trkpt lat="42.754108" lon="0.649361">
        <ele>1741.6</ele>
        <time>1989-12-30T23:59:59Z</time>
      </trkpt>
      <trkpt lat="42.754434" lon="0.649510">
        <ele>1732.4</ele>
        <time>1989-12-30T23:59:59Z</time>
      </trkpt>
      <trkpt lat="42.754714" lon="0.649765">
        <ele>1720.9</ele>
        <time>1989-12-30T23:59:59Z</time>
      </trkpt>
      <trkpt lat="42.754916" lon="0.650052">
        <ele>1715.6</ele>
        <time>1989-12-30T23:59:59Z</time>
      </trkpt>
      <trkpt lat="42.755264" lon="0.650205">
        <ele>1707.0</ele>
        <time>1989-12-30T23:59:59Z</time>
      </trkpt>
      <trkpt lat="42.755348" lon="0.650685">
        <ele>1697.8</ele>
        <time>1989-12-30T23:59:59Z</time>
      </trkpt>
      <trkpt lat="42.755348" lon="0.651064">
        <ele>1690.1</ele>
        <time>1989-12-30T23:59:59Z</time>
      </trkpt>
      <trkpt lat="42.755547" lon="0.651185">
        <ele>1684.8</ele>
        <time>1989-12-30T23:59:59Z</time>
      </trkpt>
      <trkpt lat="42.755733" lon="0.651555">
        <ele>1678.6</ele>
        <time>1989-12-30T23:59:59Z</time>
      </trkpt>
      <trkpt lat="42.755933" lon="0.651659">
        <ele>1671.4</ele>
        <time>1989-12-30T23:59:59Z</time>
      </trkpt>
      <trkpt lat="42.755994" lon="0.651674">
        <ele>1669.0</ele>
        <time>1989-12-30T23:59:59Z</time>
      </trkpt>
      <trkpt lat="42.756069" lon="0.651585">
        <ele>1665.6</ele>
        <time>1989-12-30T23:59:59Z</time>
      </trkpt>
      <trkpt lat="42.756118" lon="0.651685">
        <ele>1662.7</ele>
        <time>1989-12-30T23:59:59Z</time>
      </trkpt>
      <trkpt lat="42.756398" lon="0.651706">
        <ele>1654.1</ele>
        <time>1989-12-30T23:59:59Z</time>
      </trkpt>
      <trkpt lat="42.756555" lon="0.652107">
        <ele>1649.8</ele>
        <time>1989-12-30T23:59:59Z</time>
      </trkpt>
      <trkpt lat="42.756653" lon="0.652229">
        <ele>1646.4</ele>
        <time>1989-12-30T23:59:59Z</time>
      </trkpt>
      <trkpt lat="42.756800" lon="0.652288">
        <ele>1639.2</ele>
        <time>1989-12-30T23:59:59Z</time>
      </trkpt>
      <trkpt lat="42.756981" lon="0.652489">
        <ele>1639.7</ele>
        <time>1989-12-30T23:59:59Z</time>
      </trkpt>
      <trkpt lat="42.757080" lon="0.652520">
        <ele>1633.4</ele>
        <time>1989-12-30T23:59:59Z</time>
      </trkpt>
      <trkpt lat="42.757187" lon="0.652649">
        <ele>1627.2</ele>
        <time>1989-12-30T23:59:59Z</time>
      </trkpt>
      <trkpt lat="42.757274" lon="0.652653">
        <ele>1624.3</ele>
        <time>1989-12-30T23:59:59Z</time>
      </trkpt>
      <trkpt lat="42.757275" lon="0.652098">
        <ele>1620.0</ele>
        <time>1989-12-30T23:59:59Z</time>
      </trkpt>
      <trkpt lat="42.757345" lon="0.652035">
        <ele>1618.5</ele>
        <time>1989-12-30T23:59:59Z</time>
      </trkpt>
      <trkpt lat="42.757632" lon="0.652412">
        <ele>1609.4</ele>
        <time>1989-12-30T23:59:59Z</time>
      </trkpt>
      <trkpt lat="42.757789" lon="0.652513">
        <ele>1606.0</ele>
        <time>1989-12-30T23:59:59Z</time>
      </trkpt>
      <trkpt lat="42.757800" lon="0.652313">
        <ele>1606.0</ele>
        <time>1989-12-30T23:59:59Z</time>
      </trkpt>
      <trkpt lat="42.757810" lon="0.652353">
        <ele>1597.4</ele>
        <time>1989-12-30T23:59:59Z</time>
      </trkpt>
      <trkpt lat="42.758006" lon="0.652649">
        <ele>1592.1</ele>
        <time>1989-12-30T23:59:59Z</time>
      </trkpt>
      <trkpt lat="42.758086" lon="0.652724">
        <ele>1585.4</ele>
        <time>1989-12-30T23:59:59Z</time>
      </trkpt>
      <trkpt lat="42.758474" lon="0.653184">
        <ele>1571.4</ele>
        <time>1989-12-30T23:59:59Z</time>
      </trkpt>
      <trkpt lat="42.758587" lon="0.653126">
        <ele>1568.0</ele>
        <time>1989-12-30T23:59:59Z</time>
      </trkpt>
      <trkpt lat="42.758752" lon="0.653260">
        <ele>1563.2</ele>
        <time>1989-12-30T23:59:59Z</time>
      </trkpt>
      <trkpt lat="42.758865" lon="0.653439">
        <ele>1560.4</ele>
        <time>1989-12-30T23:59:59Z</time>
      </trkpt>
      <trkpt lat="42.758873" lon="0.653627">
        <ele>1559.4</ele>
        <time>1989-12-30T23:59:59Z</time>
      </trkpt>
      <trkpt lat="42.759037" lon="0.653789">
        <ele>1557.0</ele>
        <time>1989-12-30T23:59:59Z</time>
      </trkpt>
      <trkpt lat="42.759121" lon="0.653969">
        <ele>1554.6</ele>
        <time>1989-12-30T23:59:59Z</time>
      </trkpt>
      <trkpt lat="42.759157" lon="0.654008">
        <ele>1549.3</ele>
        <time>1989-12-30T23:59:59Z</time>
      </trkpt>
      <trkpt lat="42.759308" lon="0.654150">
        <ele>1549.3</ele>
        <time>1989-12-30T23:59:59Z</time>
      </trkpt>
      <trkpt lat="42.759437" lon="0.655364">
        <ele>1542.1</ele>
        <time>1989-12-30T23:59:59Z</time>
      </trkpt>
      <trkpt lat="42.759654" lon="0.655774">
        <ele>1533.0</ele>
        <time>1989-12-30T23:59:59Z</time>
      </trkpt>
      <trkpt lat="42.759655" lon="0.656111">
        <ele>1530.6</ele>
        <time>1989-12-30T23:59:59Z</time>
      </trkpt>
      <trkpt lat="42.759749" lon="0.656424">
        <ele>1531.5</ele>
        <time>1989-12-30T23:59:59Z</time>
      </trkpt>
      <trkpt lat="42.759680" lon="0.656824">
        <ele>1532.5</ele>
        <time>1989-12-30T23:59:59Z</time>
      </trkpt>
      <trkpt lat="42.759712" lon="0.657387">
        <ele>1525.7</ele>
        <time>1989-12-30T23:59:59Z</time>
      </trkpt>
      <trkpt lat="42.759762" lon="0.657556">
        <ele>1520.0</ele>
        <time>1989-12-30T23:59:59Z</time>
      </trkpt>
      <trkpt lat="42.760033" lon="0.658047">
        <ele>1513.7</ele>
        <time>1989-12-30T23:59:59Z</time>
      </trkpt>
      <trkpt lat="42.760565" lon="0.658790">
        <ele>1504.6</ele>
        <time>1989-12-30T23:59:59Z</time>
      </trkpt>
      <trkpt lat="42.760819" lon="0.659080">
        <ele>1498.4</ele>
        <time>1989-12-30T23:59:59Z</time>
      </trkpt>
      <trkpt lat="42.760863" lon="0.659091">
        <ele>1492.1</ele>
        <time>1989-12-30T23:59:59Z</time>
      </trkpt>
      <trkpt lat="42.761035" lon="0.659253">
        <ele>1487.8</ele>
        <time>1989-12-30T23:59:59Z</time>
      </trkpt>
      <trkpt lat="42.761272" lon="0.659637">
        <ele>1472.9</ele>
        <time>1989-12-30T23:59:59Z</time>
      </trkpt>
      <trkpt lat="42.761306" lon="0.659812">
        <ele>1466.6</ele>
        <time>1989-12-30T23:59:59Z</time>
      </trkpt>
      <trkpt lat="42.761472" lon="0.659971">
        <ele>1463.7</ele>
        <time>1989-12-30T23:59:59Z</time>
      </trkpt>
      <trkpt lat="42.761423" lon="0.659931">
        <ele>1462.8</ele>
        <time>1989-12-30T23:59:59Z</time>
      </trkpt>
      <trkpt lat="42.761525" lon="0.659961">
        <ele>1459.4</ele>
        <time>1989-12-30T23:59:59Z</time>
      </trkpt>
      <trkpt lat="42.761538" lon="0.659834">
        <ele>1456.1</ele>
        <time>1989-12-30T23:59:59Z</time>
      </trkpt>
      <trkpt lat="42.761721" lon="0.659636">
        <ele>1441.6</ele>
        <time>1989-12-30T23:59:59Z</time>
      </trkpt>
      <trkpt lat="42.761744" lon="0.659464">
        <ele>1435.4</ele>
        <time>1989-12-30T23:59:59Z</time>
      </trkpt>
      <trkpt lat="42.761709" lon="0.658621">
        <ele>1417.1</ele>
        <time>1989-12-30T23:59:59Z</time>
      </trkpt>
      <trkpt lat="42.761428" lon="0.658290">
        <ele>1410.4</ele>
        <time>1989-12-30T23:59:59Z</time>
      </trkpt>
      <trkpt lat="42.762059" lon="0.657194">
        <ele>1406.5</ele>
        <time>1989-12-30T23:59:59Z</time>
      </trkpt>
      <trkpt lat="42.762055" lon="0.657192">
        <ele>1396.5</ele>
        <time>1989-12-30T23:59:59Z</time>
      </trkpt>
      <trkpt lat="42.761959" lon="0.657021">
        <ele>1391.2</ele>
        <time>1989-12-30T23:59:59Z</time>
      </trkpt>
      <trkpt lat="42.762085" lon="0.656517">
        <ele>1384.0</ele>
        <time>1989-12-30T23:59:59Z</time>
      </trkpt>
      <trkpt lat="42.762415" lon="0.656261">
        <ele>1368.6</ele>
        <time>1989-12-30T23:59:59Z</time>
      </trkpt>
      <trkpt lat="42.762751" lon="0.656479">
        <ele>1365.2</ele>
        <time>1989-12-30T23:59:59Z</time>
      </trkpt>
      <trkpt lat="42.762993" lon="0.657276">
        <ele>1356.6</ele>
        <time>1989-12-30T23:59:59Z</time>
      </trkpt>
      <trkpt lat="42.763117" lon="0.657550">
        <ele>1356.6</ele>
        <time>1989-12-30T23:59:59Z</time>
      </trkpt>
      <trkpt lat="42.763077" lon="0.657710">
        <ele>1355.1</ele>
        <time>1989-12-30T23:59:59Z</time>
      </trkpt>
      <trkpt lat="42.763123" lon="0.657850">
        <ele>1351.3</ele>
        <time>1989-12-30T23:59:59Z</time>
      </trkpt>
      <trkpt lat="42.763281" lon="0.657899">
        <ele>1348.9</ele>
        <time>1989-12-30T23:59:59Z</time>
      </trkpt>
      <trkpt lat="42.763439" lon="0.657491">
        <ele>1344.1</ele>
        <time>1989-12-30T23:59:59Z</time>
      </trkpt>
      <trkpt lat="42.763463" lon="0.657253">
        <ele>1342.1</ele>
        <time>1989-12-30T23:59:59Z</time>
      </trkpt>
      <trkpt lat="42.763650" lon="0.656857">
        <ele>1339.3</ele>
        <time>1989-12-30T23:59:59Z</time>
      </trkpt>
      <trkpt lat="42.763895" lon="0.656885">
        <ele>1335.9</ele>
        <time>1989-12-30T23:59:59Z</time>
      </trkpt>
      <trkpt lat="42.764334" lon="0.657126">
        <ele>1332.5</ele>
        <time>1989-12-30T23:59:59Z</time>
      </trkpt>
      <trkpt lat="42.764705" lon="0.657232">
        <ele>1329.6</ele>
        <time>1989-12-30T23:59:59Z</time>
      </trkpt>
      <trkpt lat="42.764790" lon="0.657528">
        <ele>1327.2</ele>
        <time>1989-12-30T23:59:59Z</time>
      </trkpt>
      <trkpt lat="42.765191" lon="0.658035">
        <ele>1322.9</ele>
        <time>1989-12-30T23:59:59Z</time>
      </trkpt>
      <trkpt lat="42.765307" lon="0.658701">
        <ele>1318.6</ele>
        <time>1989-12-30T23:59:59Z</time>
      </trkpt>
      <trkpt lat="42.766129" lon="0.659572">
        <ele>1307.5</ele>
        <time>1989-12-30T23:59:59Z</time>
      </trkpt>
      <trkpt lat="42.766372" lon="0.660035">
        <ele>1302.7</ele>
        <time>1989-12-30T23:59:59Z</time>
      </trkpt>
      <trkpt lat="42.766396" lon="0.660223">
        <ele>1298.9</ele>
        <time>1989-12-30T23:59:59Z</time>
      </trkpt>
      <trkpt lat="42.766547" lon="0.660417">
        <ele>1297.4</ele>
        <time>1989-12-30T23:59:59Z</time>
      </trkpt>
      <trkpt lat="42.766855" lon="0.660437">
        <ele>1293.6</ele>
        <time>1989-12-30T23:59:59Z</time>
      </trkpt>
      <trkpt lat="42.767286" lon="0.660684">
        <ele>1288.8</ele>
        <time>1989-12-30T23:59:59Z</time>
      </trkpt>
      <trkpt lat="42.767752" lon="0.660796">
        <ele>1285.9</ele>
        <time>1989-12-30T23:59:59Z</time>
      </trkpt>
      <trkpt lat="42.767771" lon="0.661194">
        <ele>1281.6</ele>
        <time>1989-12-30T23:59:59Z</time>
      </trkpt>
      <trkpt lat="42.767669" lon="0.661364">
        <ele>1280.6</ele>
        <time>1989-12-30T23:59:59Z</time>
      </trkpt>
      <trkpt lat="42.767482" lon="0.661347">
        <ele>1278.7</ele>
        <time>1989-12-30T23:59:59Z</time>
      </trkpt>
      <trkpt lat="42.767370" lon="0.661427">
        <ele>1277.7</ele>
        <time>1989-12-30T23:59:59Z</time>
      </trkpt>
      <trkpt lat="42.767447" lon="0.661170">
        <ele>1281.6</ele>
        <time>1989-12-30T23:59:59Z</time>
      </trkpt>
      <trkpt lat="42.767342" lon="0.661429">
        <ele>1276.3</ele>
        <time>1989-12-30T23:59:59Z</time>
      </trkpt>
      <trkpt lat="42.767459" lon="0.661529">
        <ele>1272.4</ele>
        <time>1989-12-30T23:59:59Z</time>
      </trkpt>
      <trkpt lat="42.767453" lon="0.661728">
        <ele>1270.5</ele>
        <time>1989-12-30T23:59:59Z</time>
      </trkpt>
      <trkpt lat="42.767189" lon="0.661871">
        <ele>1267.6</ele>
        <time>1989-12-30T23:59:59Z</time>
      </trkpt>
      <trkpt lat="42.767050" lon="0.662354">
        <ele>1264.3</ele>
        <time>1989-12-30T23:59:59Z</time>
      </trkpt>
      <trkpt lat="42.766719" lon="0.662691">
        <ele>1256.6</ele>
        <time>1989-12-30T23:59:59Z</time>
      </trkpt>
      <trkpt lat="42.766471" lon="0.663438">
        <ele>1246.5</ele>
        <time>1989-12-30T23:59:59Z</time>
      </trkpt>
      <trkpt lat="42.766362" lon="0.663397">
        <ele>1244.6</ele>
        <time>1989-12-30T23:59:59Z</time>
      </trkpt>
      <trkpt lat="42.766047" lon="0.662780">
        <ele>1235.9</ele>
        <time>1989-12-30T23:59:59Z</time>
      </trkpt>
      <trkpt lat="42.765410" lon="0.662581">
        <ele>1228.7</ele>
        <time>1989-12-30T23:59:59Z</time>
      </trkpt>
      <trkpt lat="42.765320" lon="0.662607">
        <ele>1226.3</ele>
        <time>1989-12-30T23:59:59Z</time>
      </trkpt>
      <trkpt lat="42.765362" lon="0.662670">
        <ele>1222.9</ele>
        <time>1989-12-30T23:59:59Z</time>
      </trkpt>
      <trkpt lat="42.765329" lon="0.662869">
        <ele>1219.6</ele>
        <time>1989-12-30T23:59:59Z</time>
      </trkpt>
      <trkpt lat="42.765766" lon="0.663248">
        <ele>1214.8</ele>
        <time>1989-12-30T23:59:59Z</time>
      </trkpt>
      <trkpt lat="42.766023" lon="0.663800">
        <ele>1210.0</ele>
        <time>1989-12-30T23:59:59Z</time>
      </trkpt>
      <trkpt lat="42.766035" lon="0.664994">
        <ele>1201.8</ele>
        <time>1989-12-30T23:59:59Z</time>
      </trkpt>
      <trkpt lat="42.766148" lon="0.665328">
        <ele>1196.0</ele>
        <time>1989-12-30T23:59:59Z</time>
      </trkpt>
      <trkpt lat="42.766122" lon="0.665770">
        <ele>1188.3</ele>
        <time>1989-12-30T23:59:59Z</time>
      </trkpt>
      <trkpt lat="42.766326" lon="0.666538">
        <ele>1173.9</ele>
        <time>1989-12-30T23:59:59Z</time>
      </trkpt>
      <trkpt lat="42.766347" lon="0.666866">
        <ele>1172.0</ele>
        <time>1989-12-30T23:59:59Z</time>
      </trkpt>
      <trkpt lat="42.766292" lon="0.667111">
        <ele>1170.5</ele>
        <time>1989-12-30T23:59:59Z</time>
      </trkpt>
      <trkpt lat="42.766573" lon="0.667575">
        <ele>1166.7</ele>
        <time>1989-12-30T23:59:59Z</time>
      </trkpt>
      <trkpt lat="42.766804" lon="0.668556">
        <ele>1153.7</ele>
        <time>1989-12-30T23:59:59Z</time>
      </trkpt>
      <trkpt lat="42.766940" lon="0.669204">
        <ele>1153.2</ele>
        <time>1989-12-30T23:59:59Z</time>
      </trkpt>
      <trkpt lat="42.767214" lon="0.669703">
        <ele>1151.3</ele>
        <time>1989-12-30T23:59:59Z</time>
      </trkpt>
      <trkpt lat="42.767487" lon="0.670340">
        <ele>1145.5</ele>
        <time>1989-12-30T23:59:59Z</time>
      </trkpt>
      <trkpt lat="42.767986" lon="0.671155">
        <ele>1147.0</ele>
        <time>1989-12-30T23:59:59Z</time>
      </trkpt>
      <trkpt lat="42.767965" lon="0.671463">
        <ele>1148.9</ele>
        <time>1989-12-30T23:59:59Z</time>
      </trkpt>
      <trkpt lat="42.768222" lon="0.671741">
        <ele>1151.3</ele>
        <time>1989-12-30T23:59:59Z</time>
      </trkpt>
      <trkpt lat="42.768206" lon="0.671910">
        <ele>1151.3</ele>
        <time>1989-12-30T23:59:59Z</time>
      </trkpt>
      <trkpt lat="42.768478" lon="0.672446">
        <ele>1141.2</ele>
        <time>1989-12-30T23:59:59Z</time>
      </trkpt>
      <trkpt lat="42.768629" lon="0.672974">
        <ele>1133.1</ele>
        <time>1989-12-30T23:59:59Z</time>
      </trkpt>
      <trkpt lat="42.768738" lon="0.673085">
        <ele>1131.1</ele>
        <time>1989-12-30T23:59:59Z</time>
      </trkpt>
      <trkpt lat="42.768701" lon="0.673213">
        <ele>1124.9</ele>
        <time>1989-12-30T23:59:59Z</time>
      </trkpt>
      <trkpt lat="42.768738" lon="0.673584">
        <ele>1120.6</ele>
        <time>1989-12-30T23:59:59Z</time>
      </trkpt>
      <trkpt lat="42.768862" lon="0.673623">
        <ele>1118.2</ele>
        <time>1989-12-30T23:59:59Z</time>
      </trkpt>
      <trkpt lat="42.769227" lon="0.673992">
        <ele>1111.4</ele>
        <time>1989-12-30T23:59:59Z</time>
      </trkpt>
      <trkpt lat="42.769547" lon="0.674660">
        <ele>1109.5</ele>
        <time>1989-12-30T23:59:59Z</time>
      </trkpt>
      <trkpt lat="42.769803" lon="0.675820">
        <ele>1103.3</ele>
        <time>1989-12-30T23:59:59Z</time>
      </trkpt>
      <trkpt lat="42.769765" lon="0.675988">
        <ele>1104.2</ele>
        <time>1989-12-30T23:59:59Z</time>
      </trkpt>
      <trkpt lat="42.769976" lon="0.676819">
        <ele>1103.3</ele>
        <time>1989-12-30T23:59:59Z</time>
      </trkpt>
      <trkpt lat="42.770221" lon="0.677068">
        <ele>1100.4</ele>
        <time>1989-12-30T23:59:59Z</time>
      </trkpt>
      <trkpt lat="42.770381" lon="0.677384">
        <ele>1091.2</ele>
        <time>1989-12-30T23:59:59Z</time>
      </trkpt>
      <trkpt lat="42.770393" lon="0.677529">
        <ele>1090.3</ele>
        <time>1989-12-30T23:59:59Z</time>
      </trkpt>
      <trkpt lat="42.770546" lon="0.677733">
        <ele>1085.5</ele>
        <time>1989-12-30T23:59:59Z</time>
      </trkpt>
      <trkpt lat="42.770691" lon="0.677751">
        <ele>1080.2</ele>
        <time>1989-12-30T23:59:59Z</time>
      </trkpt>
      <trkpt lat="42.771392" lon="0.678076">
        <ele>1074.4</ele>
        <time>1989-12-30T23:59:59Z</time>
      </trkpt>
      <trkpt lat="42.771545" lon="0.678255">
        <ele>1071.5</ele>
        <time>1989-12-30T23:59:59Z</time>
      </trkpt>
      <trkpt lat="42.771919" lon="0.678399">
        <ele>1066.2</ele>
        <time>1989-12-30T23:59:59Z</time>
      </trkpt>
      <trkpt lat="42.772372" lon="0.678875">
        <ele>1054.7</ele>
        <time>1989-12-30T23:59:59Z</time>
      </trkpt>
      <trkpt lat="42.772425" lon="0.679003">
        <ele>1048.9</ele>
        <time>1989-12-30T23:59:59Z</time>
      </trkpt>
      <trkpt lat="42.772565" lon="0.678872">
        <ele>1043.6</ele>
        <time>1989-12-30T23:59:59Z</time>
      </trkpt>
      <trkpt lat="42.773010" lon="0.678861">
        <ele>1035.5</ele>
        <time>1989-12-30T23:59:59Z</time>
      </trkpt>
      <trkpt lat="42.773207" lon="0.678936">
        <ele>1032.6</ele>
        <time>1989-12-30T23:59:59Z</time>
      </trkpt>
      <trkpt lat="42.773517" lon="0.678835">
        <ele>1025.9</ele>
        <time>1989-12-30T23:59:59Z</time>
      </trkpt>
      <trkpt lat="42.774095" lon="0.679144">
        <ele>1008.1</ele>
        <time>1989-12-30T23:59:59Z</time>
      </trkpt>
      <trkpt lat="42.774200" lon="0.679310">
        <ele>1004.7</ele>
        <time>1989-12-30T23:59:59Z</time>
      </trkpt>
      <trkpt lat="42.774463" lon="0.679464">
        <ele>996.5</ele>
        <time>1989-12-30T23:59:59Z</time>
      </trkpt>
      <trkpt lat="42.774596" lon="0.679549">
        <ele>990.3</ele>
        <time>1989-12-30T23:59:59Z</time>
      </trkpt>
      <trkpt lat="42.774736" lon="0.679518">
        <ele>984.0</ele>
        <time>1989-12-30T23:59:59Z</time>
      </trkpt>
      <trkpt lat="42.774994" lon="0.679805">
        <ele>974.9</ele>
        <time>1989-12-30T23:59:59Z</time>
      </trkpt>
      <trkpt lat="42.775437" lon="0.679990">
        <ele>961.5</ele>
        <time>1989-12-30T23:59:59Z</time>
      </trkpt>
      <trkpt lat="42.775733" lon="0.680267">
        <ele>952.8</ele>
        <time>1989-12-30T23:59:59Z</time>
      </trkpt>
      <trkpt lat="42.775808" lon="0.680413">
        <ele>950.9</ele>
        <time>1989-12-30T23:59:59Z</time>
      </trkpt>
      <trkpt lat="42.776042" lon="0.680501">
        <ele>947.0</ele>
        <time>1989-12-30T23:59:59Z</time>
      </trkpt>
      <trkpt lat="42.776155" lon="0.680445">
        <ele>944.6</ele>
        <time>1989-12-30T23:59:59Z</time>
      </trkpt>
      <trkpt lat="42.776389" lon="0.680841">
        <ele>937.9</ele>
        <time>1989-12-30T23:59:59Z</time>
      </trkpt>
      <trkpt lat="42.776392" lon="0.681078">
        <ele>934.5</ele>
        <time>1989-12-30T23:59:59Z</time>
      </trkpt>
      <trkpt lat="42.776519" lon="0.681222">
        <ele>932.6</ele>
        <time>1989-12-30T23:59:59Z</time>
      </trkpt>
      <trkpt lat="42.776533" lon="0.681435">
        <ele>930.2</ele>
        <time>1989-12-30T23:59:59Z</time>
      </trkpt>
      <trkpt lat="42.776793" lon="0.681805">
        <ele>924.9</ele>
        <time>1989-12-30T23:59:59Z</time>
      </trkpt>
      <trkpt lat="42.776931" lon="0.682108">
        <ele>921.1</ele>
        <time>1989-12-30T23:59:59Z</time>
      </trkpt>
      <trkpt lat="42.777222" lon="0.682433">
        <ele>911.5</ele>
        <time>1989-12-30T23:59:59Z</time>
      </trkpt>
      <trkpt lat="42.777585" lon="0.682525">
        <ele>897.5</ele>
        <time>1989-12-30T23:59:59Z</time>
      </trkpt>
      <trkpt lat="42.778005" lon="0.682888">
        <ele>886.5</ele>
        <time>1989-12-30T23:59:59Z</time>
      </trkpt>
      <trkpt lat="42.778107" lon="0.683101">
        <ele>881.7</ele>
        <time>1989-12-30T23:59:59Z</time>
      </trkpt>
      <trkpt lat="42.778323" lon="0.683292">
        <ele>875.9</ele>
        <time>1989-12-30T23:59:59Z</time>
      </trkpt>
      <trkpt lat="42.779037" lon="0.683463">
        <ele>863.9</ele>
        <time>1989-12-30T23:59:59Z</time>
      </trkpt>
      <trkpt lat="42.779440" lon="0.683755">
        <ele>850.4</ele>
        <time>1989-12-30T23:59:59Z</time>
      </trkpt>
      <trkpt lat="42.779587" lon="0.683765">
        <ele>844.2</ele>
        <time>1989-12-30T23:59:59Z</time>
      </trkpt>
      <trkpt lat="42.779743" lon="0.683860">
        <ele>840.8</ele>
        <time>1989-12-30T23:59:59Z</time>
      </trkpt>
      <trkpt lat="42.779893" lon="0.683906">
        <ele>837.9</ele>
        <time>1989-12-30T23:59:59Z</time>
      </trkpt>
      <trkpt lat="42.780011" lon="0.683842">
        <ele>835.5</ele>
        <time>1989-12-30T23:59:59Z</time>
      </trkpt>
      <trkpt lat="42.780477" lon="0.683981">
        <ele>825.4</ele>
        <time>1989-12-30T23:59:59Z</time>
      </trkpt>
      <trkpt lat="42.781018" lon="0.684354">
        <ele>813.4</ele>
        <time>1989-12-30T23:59:59Z</time>
      </trkpt>
      <trkpt lat="42.781138" lon="0.684666">
        <ele>808.1</ele>
        <time>1989-12-30T23:59:59Z</time>
      </trkpt>
      <trkpt lat="42.781195" lon="0.685107">
        <ele>797.6</ele>
        <time>1989-12-30T23:59:59Z</time>
      </trkpt>
      <trkpt lat="42.781404" lon="0.685693">
        <ele>787.0</ele>
        <time>1989-12-30T23:59:59Z</time>
      </trkpt>
      <trkpt lat="42.781705" lon="0.686115">
        <ele>776.9</ele>
        <time>1989-12-30T23:59:59Z</time>
      </trkpt>
      <trkpt lat="42.782204" lon="0.687100">
        <ele>763.4</ele>
        <time>1989-12-30T23:59:59Z</time>
      </trkpt>
      <trkpt lat="42.782332" lon="0.687477">
        <ele>758.6</ele>
        <time>1989-12-30T23:59:59Z</time>
      </trkpt>
      <trkpt lat="42.782598" lon="0.688746">
        <ele>747.1</ele>
        <time>1989-12-30T23:59:59Z</time>
      </trkpt>
      <trkpt lat="42.782638" lon="0.689465">
        <ele>740.4</ele>
        <time>1989-12-30T23:59:59Z</time>
      </trkpt>
      <trkpt lat="42.782737" lon="0.689731">
        <ele>739.4</ele>
        <time>1989-12-30T23:59:59Z</time>
      </trkpt>
      <trkpt lat="42.782703" lon="0.690011">
        <ele>735.5</ele>
        <time>1989-12-30T23:59:59Z</time>
      </trkpt>
      <trkpt lat="42.782775" lon="0.690304">
        <ele>733.1</ele>
        <time>1989-12-30T23:59:59Z</time>
      </trkpt>
      <trkpt lat="42.782857" lon="0.690399">
        <ele>732.7</ele>
        <time>1989-12-30T23:59:59Z</time>
      </trkpt>
    </trkseg>
  </trk>
</gpx>
